sensor_id;sensor_type;location;lat;lon;timestamp;P1;durP1;ratioP1;P2;durP2;ratioP2
1078;SDS011;528;47.872;11.478;2022-08-21T01:03:27;3.03;;;2.83;;
1078;SDS011;528;47.872;11.478;2022-08-21T01:06:03;4.00;;;3.00;;
1078;SDS011;528;47.872;11.478;2022-08-21T01:08:35;4.93;;;2.70;;
1078;SDS011;528;47.872;11.478;2022-08-21T01:11:03;3.37;;;3.17;;
1078;SDS011;528;47.872;11.478;2022-08-21T01:13:36;3.10;;;2.80;;
1078;SDS011;528;47.872;11.478;2022-08-21T01:16:12;3.60;;;3.20;;
1078;SDS011;528;47.872;11.478;2022-08-21T01:18:46;2.93;;;2.73;;
1078;SDS011;528;47.872;11.478;2022-08-21T01:21:18;4.10;;;2.67;;
1078;SDS011;528;47.872;11.478;2022-08-21T01:23:49;3.30;;;3.10;;
1078;SDS011;528;47.872;11.478;2022-08-21T01:26:20;3.33;;;3.10;;
1078;SDS011;528;47.872;11.478;2022-08-21T01:28:56;3.17;;;2.97;;
1078;SDS011;528;47.872;11.478;2022-08-21T01:31:37;3.03;;;2.77;;
1078;SDS011;528;47.872;11.478;2022-08-21T01:34:12;3.47;;;2.60;;
1078;SDS011;528;47.872;11.478;2022-08-21T01:36:52;2.87;;;2.67;;
1078;SDS011;528;47.872;11.478;2022-08-21T01:39:30;3.77;;;2.80;;
1078;SDS011;528;47.872;11.478;2022-08-21T01:42:11;3.67;;;2.70;;
1078;SDS011;528;47.872;11.478;2022-08-21T01:44:50;4.70;;;3.17;;
1078;SDS011;528;47.872;11.478;2022-08-21T01:47:52;2.97;;;2.77;;
1078;SDS011;528;47.872;11.478;2022-08-21T01:50:36;4.67;;;2.90;;
1078;SDS011;528;47.872;11.478;2022-08-21T01:53:18;3.10;;;2.80;;
1078;SDS011;528;47.872;11.478;2022-08-21T01:57:03;3.13;;;2.83;;
1078;SDS011;528;47.872;11.478;2022-08-21T01:59:11;3.73;;;3.43;;
1078;SDS011;528;47.872;11.478;2022-08-21T02:02:01;4.03;;;3.30;;
1078;SDS011;528;47.872;11.478;2022-08-21T02:04:41;3.13;;;2.93;;
1078;SDS011;528;47.872;11.478;2022-08-21T02:07:24;3.30;;;3.10;;
1078;SDS011;528;47.872;11.478;2022-08-21T02:10:11;3.20;;;2.90;;
1078;SDS011;528;47.872;11.478;2022-08-21T02:13:04;3.50;;;3.30;;
1078;SDS011;528;47.872;11.478;2022-08-21T02:15:54;3.30;;;3.00;;
1078;SDS011;528;47.872;11.478;2022-08-21T02:21:51;3.90;;;3.10;;
1078;SDS011;528;47.872;11.478;2022-08-21T02:24:29;3.60;;;2.90;;
1078;SDS011;528;47.872;11.478;2022-08-21T02:30:33;3.50;;;2.50;;
1078;SDS011;528;47.872;11.478;2022-08-21T02:33:23;2.80;;;2.60;;
1078;SDS011;528;47.872;11.478;2022-08-21T02:36:22;2.87;;;2.67;;
1078;SDS011;528;47.872;11.478;2022-08-21T02:39:14;3.33;;;2.60;;
1078;SDS011;528;47.872;11.478;2022-08-21T02:41:54;2.77;;;2.57;;
1078;SDS011;528;47.872;11.478;2022-08-21T02:48:05;2.90;;;2.70;;
1078;SDS011;528;47.872;11.478;2022-08-21T02:50:47;3.70;;;2.60;;
1078;SDS011;528;47.872;11.478;2022-08-21T02:53:24;2.80;;;2.60;;
1078;SDS011;528;47.872;11.478;2022-08-21T02:55:56;4.70;;;2.60;;
1078;SDS011;528;47.872;11.478;2022-08-21T02:58:30;2.80;;;2.60;;
1078;SDS011;528;47.872;11.478;2022-08-21T03:01:10;3.03;;;2.37;;
1078;SDS011;528;47.872;11.478;2022-08-21T03:03:58;2.63;;;2.43;;
1078;SDS011;528;47.872;11.478;2022-08-21T03:06:34;2.83;;;2.53;;
1078;SDS011;528;47.872;11.478;2022-08-21T03:09:22;2.83;;;2.63;;
1078;SDS011;528;47.872;11.478;2022-08-21T03:12:24;3.10;;;2.20;;
1078;SDS011;528;47.872;11.478;2022-08-21T03:14:58;3.53;;;2.30;;
1078;SDS011;528;47.872;11.478;2022-08-21T03:17:34;2.50;;;2.30;;
1078;SDS011;528;47.872;11.478;2022-08-21T03:20:28;3.17;;;2.67;;
1078;SDS011;528;47.872;11.478;2022-08-21T03:23:05;3.73;;;2.60;;
1078;SDS011;528;47.872;11.478;2022-08-21T03:25:56;2.73;;;2.40;;
1078;SDS011;528;47.872;11.478;2022-08-21T03:28:28;2.53;;;2.23;;
1078;SDS011;528;47.872;11.478;2022-08-21T03:31:02;2.57;;;2.20;;
1078;SDS011;528;47.872;11.478;2022-08-21T03:33:38;3.10;;;2.80;;
1078;SDS011;528;47.872;11.478;2022-08-21T03:36:23;3.33;;;2.13;;
1078;SDS011;528;47.872;11.478;2022-08-21T03:38:58;2.73;;;2.50;;
1078;SDS011;528;47.872;11.478;2022-08-21T03:41:34;3.53;;;1.97;;
1078;SDS011;528;47.872;11.478;2022-08-21T03:44:32;2.70;;;2.50;;
1078;SDS011;528;47.872;11.478;2022-08-21T03:47:00;4.03;;;2.50;;
1078;SDS011;528;47.872;11.478;2022-08-21T03:49:28;5.73;;;2.80;;
1078;SDS011;528;47.872;11.478;2022-08-21T03:52:07;3.80;;;2.70;;
1078;SDS011;528;47.872;11.478;2022-08-21T03:54:35;5.00;;;2.77;;
1078;SDS011;528;47.872;11.478;2022-08-21T03:57:06;4.20;;;2.30;;
1078;SDS011;528;47.872;11.478;2022-08-21T03:59:35;2.73;;;2.53;;
1078;SDS011;528;47.872;11.478;2022-08-21T04:02:08;2.93;;;2.43;;
1078;SDS011;528;47.872;11.478;2022-08-21T04:04:43;2.47;;;2.27;;
1078;SDS011;528;47.872;11.478;2022-08-21T04:07:14;2.80;;;2.60;;
1078;SDS011;528;47.872;11.478;2022-08-21T04:09:45;2.93;;;2.70;;
1078;SDS011;528;47.872;11.478;2022-08-21T04:12:19;2.70;;;2.50;;
1078;SDS011;528;47.872;11.478;2022-08-21T04:14:54;5.03;;;2.90;;
1078;SDS011;528;47.872;11.478;2022-08-21T04:17:28;2.33;;;2.13;;
1078;SDS011;528;47.872;11.478;2022-08-21T04:20:00;3.87;;;2.80;;
1078;SDS011;528;47.872;11.478;2022-08-21T04:22:29;2.63;;;2.43;;
1078;SDS011;528;47.872;11.478;2022-08-21T04:25:00;3.63;;;2.53;;
1078;SDS011;528;47.872;11.478;2022-08-21T04:27:36;2.77;;;2.57;;
1078;SDS011;528;47.872;11.478;2022-08-21T04:30:15;2.30;;;2.10;;
1078;SDS011;528;47.872;11.478;2022-08-21T04:33:15;2.63;;;2.30;;
1078;SDS011;528;47.872;11.478;2022-08-21T04:35:42;3.00;;;2.50;;
1078;SDS011;528;47.872;11.478;2022-08-21T04:38:20;2.50;;;2.30;;
1078;SDS011;528;47.872;11.478;2022-08-21T04:40:51;2.60;;;2.40;;
1078;SDS011;528;47.872;11.478;2022-08-21T04:43:22;2.73;;;2.30;;
1078;SDS011;528;47.872;11.478;2022-08-21T04:45:53;4.73;;;2.77;;
1078;SDS011;528;47.872;11.478;2022-08-21T04:48:25;4.43;;;2.77;;
1078;SDS011;528;47.872;11.478;2022-08-21T04:51:01;9.90;;;9.23;;
1078;SDS011;528;47.872;11.478;2022-08-21T04:53:47;4.50;;;4.10;;
1078;SDS011;528;47.872;11.478;2022-08-21T04:56:25;4.47;;;3.40;;
1078;SDS011;528;47.872;11.478;2022-08-21T04:59:05;2.93;;;2.73;;
1078;SDS011;528;47.872;11.478;2022-08-21T05:01:49;3.63;;;3.30;;
1078;SDS011;528;47.872;11.478;2022-08-21T05:16:00;4.10;;;3.30;;
1078;SDS011;528;47.872;11.478;2022-08-21T05:18:39;3.57;;;3.10;;
1078;SDS011;528;47.872;11.478;2022-08-21T05:21:38;3.80;;;3.50;;
1078;SDS011;528;47.872;11.478;2022-08-21T05:24:25;3.13;;;2.77;;
1078;SDS011;528;47.872;11.478;2022-08-21T05:27:22;3.23;;;3.03;;
1078;SDS011;528;47.872;11.478;2022-08-21T05:30:18;3.10;;;2.80;;
1078;SDS011;528;47.872;11.478;2022-08-21T05:33:21;3.27;;;2.97;;
1078;SDS011;528;47.872;11.478;2022-08-21T05:35:59;3.30;;;3.00;;
1078;SDS011;528;47.872;11.478;2022-08-21T05:38:35;3.30;;;3.03;;
1078;SDS011;528;47.872;11.478;2022-08-21T05:41:15;2.33;;;2.23;;
1078;SDS011;528;47.872;11.478;2022-08-21T05:43:56;2.77;;;2.57;;
1078;SDS011;528;47.872;11.478;2022-08-21T05:47:23;2.87;;;2.67;;
1078;SDS011;528;47.872;11.478;2022-08-21T05:50:26;2.60;;;2.40;;
1078;SDS011;528;47.872;11.478;2022-08-21T05:53:07;2.70;;;2.50;;
1078;SDS011;528;47.872;11.478;2022-08-21T05:55:57;2.93;;;2.73;;
1078;SDS011;528;47.872;11.478;2022-08-21T05:58:25;3.00;;;2.80;;
1078;SDS011;528;47.872;11.478;2022-08-21T06:01:00;2.60;;;2.40;;
1078;SDS011;528;47.872;11.478;2022-08-21T06:03:33;2.80;;;2.60;;
1078;SDS011;528;47.872;11.478;2022-08-21T06:06:04;2.47;;;2.27;;
1078;SDS011;528;47.872;11.478;2022-08-21T06:08:32;2.53;;;2.37;;
1078;SDS011;528;47.872;11.478;2022-08-21T06:11:03;2.93;;;2.73;;
1078;SDS011;528;47.872;11.478;2022-08-21T06:13:35;3.43;;;2.70;;
1078;SDS011;528;47.872;11.478;2022-08-21T06:16:05;2.50;;;2.30;;
1078;SDS011;528;47.872;11.478;2022-08-21T06:18:35;2.80;;;2.40;;
1078;SDS011;528;47.872;11.478;2022-08-21T06:21:17;2.90;;;2.53;;
1078;SDS011;528;47.872;11.478;2022-08-21T06:23:47;2.87;;;2.67;;
1078;SDS011;528;47.872;11.478;2022-08-21T06:26:19;2.70;;;2.50;;
1078;SDS011;528;47.872;11.478;2022-08-21T06:28:49;3.20;;;2.53;;
1078;SDS011;528;47.872;11.478;2022-08-21T06:31:18;2.30;;;2.20;;
1078;SDS011;528;47.872;11.478;2022-08-21T06:33:47;2.60;;;2.40;;
1078;SDS011;528;47.872;11.478;2022-08-21T06:36:19;2.03;;;1.93;;
1078;SDS011;528;47.872;11.478;2022-08-21T06:38:47;2.47;;;2.27;;
1078;SDS011;528;47.872;11.478;2022-08-21T06:41:15;2.30;;;2.20;;
1078;SDS011;528;47.872;11.478;2022-08-21T06:43:45;2.20;;;2.10;;
1078;SDS011;528;47.872;11.478;2022-08-21T06:46:19;2.40;;;2.20;;
1078;SDS011;528;47.872;11.478;2022-08-21T06:48:50;1.83;;;1.73;;
1078;SDS011;528;47.872;11.478;2022-08-21T06:51:27;3.17;;;2.30;;
1078;SDS011;528;47.872;11.478;2022-08-21T06:54:00;1.90;;;1.80;;
1078;SDS011;528;47.872;11.478;2022-08-21T06:56:43;2.53;;;2.33;;
1078;SDS011;528;47.872;11.478;2022-08-21T06:59:11;2.10;;;2.00;;
1078;SDS011;528;47.872;11.478;2022-08-21T07:01:48;2.20;;;2.00;;
1078;SDS011;528;47.872;11.478;2022-08-21T07:04:22;2.10;;;2.00;;
1078;SDS011;528;47.872;11.478;2022-08-21T07:06:59;2.50;;;2.30;;
1078;SDS011;528;47.872;11.478;2022-08-21T07:09:33;2.30;;;2.20;;
1078;SDS011;528;47.872;11.478;2022-08-21T07:12:25;2.40;;;2.30;;
1078;SDS011;528;47.872;11.478;2022-08-21T07:14:59;1.83;;;1.73;;
1078;SDS011;528;47.872;11.478;2022-08-21T07:17:59;2.30;;;2.10;;
1078;SDS011;528;47.872;11.478;2022-08-21T07:20:43;2.20;;;2.10;;
1078;SDS011;528;47.872;11.478;2022-08-21T07:30:22;1.93;;;1.83;;
1078;SDS011;528;47.872;11.478;2022-08-21T07:33:31;2.20;;;2.10;;
1078;SDS011;528;47.872;11.478;2022-08-21T07:36:20;2.03;;;1.87;;
1078;SDS011;528;47.872;11.478;2022-08-21T07:39:07;1.93;;;1.80;;
1078;SDS011;528;47.872;11.478;2022-08-21T07:41:38;2.73;;;2.47;;
1078;SDS011;528;47.872;11.478;2022-08-21T08:34:43;3.37;;;2.67;;
1078;SDS011;528;47.872;11.478;2022-08-21T08:37:59;2.70;;;2.50;;
1078;SDS011;528;47.872;11.478;2022-08-21T08:59:32;4.43;;;3.00;;
1078;SDS011;528;47.872;11.478;2022-08-21T09:02:03;2.80;;;2.50;;
1078;SDS011;528;47.872;11.478;2022-08-21T09:04:39;2.90;;;2.60;;
1078;SDS011;528;47.872;11.478;2022-08-21T09:07:10;2.83;;;2.50;;
1078;SDS011;528;47.872;11.478;2022-08-21T09:09:48;3.73;;;2.90;;
1078;SDS011;528;47.872;11.478;2022-08-21T09:12:29;3.40;;;3.10;;
1078;SDS011;528;47.872;11.478;2022-08-21T09:15:09;4.77;;;3.30;;
1078;SDS011;528;47.872;11.478;2022-08-21T09:17:48;3.07;;;2.60;;
1078;SDS011;528;47.872;11.478;2022-08-21T21:29:31;6.53;;;5.93;;
1078;SDS011;528;47.872;11.478;2022-08-21T21:32:05;8.70;;;5.87;;
1078;SDS011;528;47.872;11.478;2022-08-21T21:34:34;6.33;;;5.53;;
1078;SDS011;528;47.872;11.478;2022-08-21T21:37:05;5.37;;;4.90;;
1078;SDS011;528;47.872;11.478;2022-08-21T21:39:36;6.10;;;5.50;;
1078;SDS011;528;47.872;11.478;2022-08-21T21:42:16;6.60;;;6.00;;
1078;SDS011;528;47.872;11.478;2022-08-21T21:44:59;6.53;;;5.60;;
1078;SDS011;528;47.872;11.478;2022-08-21T21:47:49;6.00;;;5.40;;
1078;SDS011;528;47.872;11.478;2022-08-21T21:50:44;6.50;;;6.00;;
1078;SDS011;528;47.872;11.478;2022-08-21T21:53:24;6.30;;;5.70;;
1078;SDS011;528;47.872;11.478;2022-08-21T21:56:21;6.53;;;5.93;;
1078;SDS011;528;47.872;11.478;2022-08-21T21:59:40;6.37;;;5.57;;
1078;SDS011;528;47.872;11.478;2022-08-21T22:02:54;7.47;;;5.73;;
1078;SDS011;528;47.872;11.478;2022-08-21T22:05:50;7.97;;;5.73;;
1078;SDS011;528;47.872;11.478;2022-08-21T22:09:07;6.27;;;5.67;;
1078;SDS011;528;47.872;11.478;2022-08-21T22:15:39;6.40;;;5.73;;
1078;SDS011;528;47.872;11.478;2022-08-21T22:18:35;6.40;;;5.90;;
1078;SDS011;528;47.872;11.478;2022-08-21T22:25:07;6.27;;;5.27;;
1078;SDS011;528;47.872;11.478;2022-08-21T22:35:22;6.63;;;5.40;;
1078;SDS011;528;47.872;11.478;2022-08-21T22:38:41;5.90;;;5.40;;
1078;SDS011;528;47.872;11.478;2022-08-21T22:41:43;6.57;;;5.83;;
1078;SDS011;528;47.872;11.478;2022-08-21T22:44:45;6.53;;;5.93;;
1078;SDS011;528;47.872;11.478;2022-08-21T22:47:54;6.80;;;6.20;;
1078;SDS011;528;47.872;11.478;2022-08-21T22:57:59;6.20;;;5.60;;
1078;SDS011;528;47.872;11.478;2022-08-21T23:01:16;6.10;;;5.50;;
1078;SDS011;528;47.872;11.478;2022-08-21T23:04:28;6.63;;;5.90;;
1078;SDS011;528;47.872;11.478;2022-08-21T23:07:41;6.10;;;5.60;;
1078;SDS011;528;47.872;11.478;2022-08-21T23:17:15;7.20;;;6.60;;
1078;SDS011;528;47.872;11.478;2022-08-21T23:23:39;6.13;;;5.17;;
1078;SDS011;528;47.872;11.478;2022-08-21T23:33:11;6.60;;;6.00;;
1078;SDS011;528;47.872;11.478;2022-08-21T23:35:58;7.80;;;5.83;;
1078;SDS011;528;47.872;11.478;2022-08-21T23:39:13;6.20;;;5.60;;
1078;SDS011;528;47.872;11.478;2022-08-21T23:41:54;7.00;;;6.40;;
1078;SDS011;528;47.872;11.478;2022-08-21T23:44:47;6.60;;;5.90;;
1078;SDS011;528;47.872;11.478;2022-08-21T23:51:02;6.70;;;6.03;;
1078;SDS011;528;47.872;11.478;2022-08-21T23:55:08;6.87;;;6.03;;
1078;SDS011;528;47.872;11.478;2022-08-21T23:57:26;6.33;;;5.77;;
